Terminal Aerodrome Forecast
Issued by NWS St Louis, MO

Home | Current Version | Previous Version | Text Only | Print | Product List | Glossary On
Versions: 1 2 3 4 5 6 7 8 9 10 11 12 13 14 15 16 17
000
FTUS43 KLSX 012200 AAB
TAFCOU
TAF AMD
KCOU 012224Z 0122/0218 07010KT P6SM SCT040 BKN120
      TEMPO 0122/0124 VRB12G20KT 1SM +TSRA BKN020CB
     FM020000 14006KT P6SM VCTS SCT040CB BKN120
     FM020300 17006KT 4SM -SHRA VCTS OVC035CB
     FM021200 16006KT P6SM SCT010 BKN035=

USA.gov is the U.S. government's official web portal to all federal, state and local government web resources and services.